PWSweather.com
Personal Weather Stations
Station Observations
WD4JKH
Forsyth, GA 31029

Forsyth, GA 31029

Lat: 33.033225, Lon: -83.927995

Elevation: 709

Station Type: Davis Vantage VUE

High Low Average
Temperature 61.8°F16.6°C 38.4°F3.6°C 50.1°F10.1°C
Dew Point 53.2°F11.8°C 25.6°F-3.6°C 40.2°F4.6°C
Winds 11.1 mph 17.9 kmh Calm Calm 4.0 mph SW6.4 kmh SW
Wind Gusts 20.0 mph32.2 kmh 1.0 mph1.6 kmh 10.0 mph16.1 kmh
Humidity 87% 52% 69%
Pressure 30.24 in1024.0 mb 30.07 in1018.3 mb -
Precipitation 0.00 in0.0 mm - -
Hour Temp Dew Point Humidity Winds Wind Gusts Pressure Precip Precip Rate Daily Precip Total
12:03 AM 42.0°F5.6°C 25.6°F-3.6°C 52% 3.2 mph SSW5.1 kmh SSW 7.0 mph11.3 kmh 30.21 in1023.0 mb 0.00 in0.0 mm 0.00 in0.0 mm 0.00 in0.0 mm
12:08 AM 42.0°F5.6°C 25.6°F-3.6°C 52% 3.6 mph SSW5.8 kmh SSW 7.0 mph11.3 kmh 30.21 in1023.0 mb 0.00 in0.0 mm 0.00 in0.0 mm 0.00 in0.0 mm
12:13 AM 42.0°F5.6°C 25.6°F-3.6°C 52% 3.0 mph SSW4.8 kmh SSW 7.0 mph11.3 kmh 30.21 in1023.0 mb 0.00 in0.0 mm 0.00 in0.0 mm 0.00 in0.0 mm
12:18 AM 42.2°F5.7°C 25.8°F-3.4°C 52% 3.2 mph SSW5.1 kmh SSW 7.0 mph11.3 kmh 30.21 in1023.0 mb 0.00 in0.0 mm 0.00 in0.0 mm 0.00 in0.0 mm
12:23 AM 42.2°F5.7°C 25.8°F-3.4°C 52% 3.0 mph SSW4.8 kmh SSW 7.0 mph11.3 kmh 30.21 in1023.0 mb 0.00 in0.0 mm 0.00 in0.0 mm 0.00 in0.0 mm
12:28 AM 42.3°F5.7°C 25.9°F-3.4°C 52% 2.6 mph SSW4.2 kmh SSW 7.0 mph11.3 kmh 30.21 in1023.0 mb 0.00 in0.0 mm 0.00 in0.0 mm 0.00 in0.0 mm
12:33 AM 42.3°F5.7°C 25.9°F-3.4°C 52% 2.0 mph SSW3.2 kmh SSW 6.0 mph9.7 kmh 30.21 in1023.0 mb 0.00 in0.0 mm 0.00 in0.0 mm 0.00 in0.0 mm
12:38 AM 42.3°F5.7°C 25.9°F-3.4°C 52% 2.3 mph SSW3.7 kmh SSW 5.0 mph8.0 kmh 30.21 in1023.0 mb 0.00 in0.0 mm 0.00 in0.0 mm 0.00 in0.0 mm
12:43 AM 42.2°F5.7°C 25.8°F-3.4°C 52% 2.0 mph SSW3.2 kmh SSW 5.0 mph8.0 kmh 30.21 in1023.0 mb 0.00 in0.0 mm 0.00 in0.0 mm 0.00 in0.0 mm
12:48 AM 42.1°F5.6°C 25.7°F-3.5°C 52% 1.9 mph SW3.1 kmh SW 4.0 mph6.4 kmh 30.22 in1023.4 mb 0.00 in0.0 mm 0.00 in0.0 mm 0.00 in0.0 mm
12:53 AM 42.0°F5.6°C 26.1°F-3.3°C 53% 1.6 mph SW2.6 kmh SW 4.0 mph6.4 kmh 30.22 in1023.4 mb 0.00 in0.0 mm 0.00 in0.0 mm 0.00 in0.0 mm
12:58 AM 41.9°F5.5°C 26.0°F-3.3°C 53% 1.5 mph SSW2.4 kmh SSW 4.0 mph6.4 kmh 30.21 in1023.0 mb 0.00 in0.0 mm 0.00 in0.0 mm 0.00 in0.0 mm
01:03 AM 41.7°F5.4°C 25.8°F-3.4°C 53% 1.2 mph SW1.9 kmh SW 4.0 mph6.4 kmh 30.22 in1023.4 mb 0.00 in0.0 mm 0.00 in0.0 mm 0.00 in0.0 mm
01:08 AM 41.6°F5.3°C 25.7°F-3.5°C 53% 1.3 mph SSW2.1 kmh SSW 4.0 mph6.4 kmh 30.22 in1023.4 mb 0.00 in0.0 mm 0.00 in0.0 mm 0.00 in0.0 mm
01:13 AM 41.4°F5.2°C 26.0°F-3.3°C 54% 1.0 mph SW1.6 kmh SW 3.0 mph4.8 kmh 30.22 in1023.4 mb 0.00 in0.0 mm 0.00 in0.0 mm 0.00 in0.0 mm
01:18 AM 41.5°F5.3°C 26.1°F-3.3°C 54% 1.3 mph SW2.1 kmh SW 3.0 mph4.8 kmh 30.22 in1023.4 mb 0.00 in0.0 mm 0.00 in0.0 mm 0.00 in0.0 mm
01:23 AM 41.4°F5.2°C 26.0°F-3.3°C 54% 1.1 mph SW1.8 kmh SW 3.0 mph4.8 kmh 30.22 in1023.4 mb 0.00 in0.0 mm 0.00 in0.0 mm 0.00 in0.0 mm
01:27 AM 41.4°F5.2°C 26.0°F-3.3°C 54% 1.4 mph SW2.3 kmh SW 3.0 mph4.8 kmh 30.22 in1023.4 mb 0.00 in0.0 mm 0.00 in0.0 mm 0.00 in0.0 mm
01:32 AM 41.3°F5.2°C 25.9°F-3.4°C 54% 1.3 mph SW2.1 kmh SW 3.0 mph4.8 kmh 30.22 in1023.4 mb 0.00 in0.0 mm 0.00 in0.0 mm 0.00 in0.0 mm
01:37 AM 41.3°F5.2°C 25.9°F-3.4°C 54% 1.4 mph SW2.3 kmh SW 3.0 mph4.8 kmh 30.22 in1023.4 mb 0.00 in0.0 mm 0.00 in0.0 mm 0.00 in0.0 mm
01:42 AM 41.1°F5.1°C 26.2°F-3.2°C 55% 1.4 mph SW2.3 kmh SW 3.0 mph4.8 kmh 30.22 in1023.4 mb 0.00 in0.0 mm 0.00 in0.0 mm 0.00 in0.0 mm
01:47 AM 41.0°F5.0°C 26.1°F-3.3°C 55% 1.0 mph SW1.6 kmh SW 3.0 mph4.8 kmh 30.22 in1023.4 mb 0.00 in0.0 mm 0.00 in0.0 mm 0.00 in0.0 mm
01:52 AM 40.8°F4.9°C 26.3°F-3.2°C 56% 1.0 mph SW1.6 kmh SW 3.0 mph4.8 kmh 30.22 in1023.4 mb 0.00 in0.0 mm 0.00 in0.0 mm 0.00 in0.0 mm
01:57 AM 40.6°F4.8°C 26.1°F-3.3°C 56% 1.3 mph SW2.1 kmh SW 2.0 mph3.2 kmh 30.22 in1023.4 mb 0.00 in0.0 mm 0.00 in0.0 mm 0.00 in0.0 mm
02:02 AM 40.4°F4.7°C 26.0°F-3.3°C 56% Calm Calm 2.0 mph3.2 kmh 30.22 in1023.4 mb 0.00 in0.0 mm 0.00 in0.0 mm 0.00 in0.0 mm
02:07 AM 40.3°F4.6°C 26.3°F-3.2°C 57% Calm Calm 2.0 mph3.2 kmh 30.22 in1023.4 mb 0.00 in0.0 mm 0.00 in0.0 mm 0.00 in0.0 mm
02:12 AM 40.2°F4.6°C 26.2°F-3.2°C 57% Calm Calm 2.0 mph3.2 kmh 30.23 in1023.7 mb 0.00 in0.0 mm 0.00 in0.0 mm 0.00 in0.0 mm
02:17 AM 40.4°F4.7°C 26.4°F-3.1°C 57% Calm Calm 1.0 mph1.6 kmh 30.23 in1023.7 mb 0.00 in0.0 mm 0.00 in0.0 mm 0.00 in0.0 mm
02:22 AM 40.6°F4.8°C 26.6°F-3.0°C 57% Calm Calm 1.0 mph1.6 kmh 30.23 in1023.7 mb 0.00 in0.0 mm 0.00 in0.0 mm 0.00 in0.0 mm
02:27 AM 40.6°F4.8°C 26.6°F-3.0°C 57% 1.0 mph SW1.6 kmh SW 1.0 mph1.6 kmh 30.23 in1023.7 mb 0.00 in0.0 mm 0.00 in0.0 mm 0.00 in0.0 mm
02:32 AM 40.7°F4.8°C 26.7°F-2.9°C 57% 1.2 mph SW1.9 kmh SW 2.0 mph3.2 kmh 30.23 in1023.7 mb 0.00 in0.0 mm 0.00 in0.0 mm 0.00 in0.0 mm
02:37 AM 40.9°F4.9°C 26.4°F-3.1°C 56% 1.9 mph SW3.1 kmh SW 3.0 mph4.8 kmh 30.23 in1023.7 mb 0.00 in0.0 mm 0.00 in0.0 mm 0.00 in0.0 mm
02:42 AM 41.2°F5.1°C 26.7°F-2.9°C 56% 2.2 mph SW3.5 kmh SW 3.0 mph4.8 kmh 30.23 in1023.7 mb 0.00 in0.0 mm 0.00 in0.0 mm 0.00 in0.0 mm
02:47 AM 41.5°F5.3°C 27.0°F-2.8°C 56% 2.7 mph SW4.3 kmh SW 4.0 mph6.4 kmh 30.23 in1023.7 mb 0.00 in0.0 mm 0.00 in0.0 mm 0.00 in0.0 mm
02:52 AM 41.6°F5.3°C 26.6°F-3.0°C 55% 1.8 mph SSW2.9 kmh SSW 4.0 mph6.4 kmh 30.23 in1023.7 mb 0.00 in0.0 mm 0.00 in0.0 mm 0.00 in0.0 mm
02:57 AM 41.4°F5.2°C 26.9°F-2.8°C 56% 2.1 mph SSW3.4 kmh SSW 5.0 mph8.0 kmh 30.23 in1023.7 mb 0.00 in0.0 mm 0.00 in0.0 mm 0.00 in0.0 mm
03:02 AM 41.3°F5.2°C 26.8°F-2.9°C 56% 2.2 mph SW3.5 kmh SW 5.0 mph8.0 kmh 30.23 in1023.7 mb 0.00 in0.0 mm 0.00 in0.0 mm 0.00 in0.0 mm
03:07 AM 41.3°F5.2°C 26.8°F-2.9°C 56% 2.2 mph SSW3.5 kmh SSW 5.0 mph8.0 kmh 30.23 in1023.7 mb 0.00 in0.0 mm 0.00 in0.0 mm 0.00 in0.0 mm
03:12 AM 41.2°F5.1°C 26.7°F-2.9°C 56% 2.3 mph SSW3.7 kmh SSW 5.0 mph8.0 kmh 30.23 in1023.7 mb 0.00 in0.0 mm 0.00 in0.0 mm 0.00 in0.0 mm
03:17 AM 41.2°F5.1°C 26.7°F-2.9°C 56% 2.3 mph SSW3.7 kmh SSW 4.0 mph6.4 kmh 30.23 in1023.7 mb 0.00 in0.0 mm 0.00 in0.0 mm 0.00 in0.0 mm
03:22 AM 41.3°F5.2°C 26.8°F-2.9°C 56% 1.8 mph SSW2.9 kmh SSW 4.0 mph6.4 kmh 30.23 in1023.7 mb 0.00 in0.0 mm 0.00 in0.0 mm 0.00 in0.0 mm
03:27 AM 41.4°F5.2°C 26.9°F-2.8°C 56% 2.2 mph SSW3.5 kmh SSW 4.0 mph6.4 kmh 30.23 in1023.7 mb 0.00 in0.0 mm 0.00 in0.0 mm 0.00 in0.0 mm
03:32 AM 41.3°F5.2°C 26.8°F-2.9°C 56% 1.4 mph SSW2.3 kmh SSW 4.0 mph6.4 kmh 30.23 in1023.7 mb 0.00 in0.0 mm 0.00 in0.0 mm 0.00 in0.0 mm
03:37 AM 41.3°F5.2°C 26.8°F-2.9°C 56% 2.2 mph SSW3.5 kmh SSW 4.0 mph6.4 kmh 30.23 in1023.7 mb 0.00 in0.0 mm 0.00 in0.0 mm 0.00 in0.0 mm
03:42 AM 41.2°F5.1°C 26.7°F-2.9°C 56% 2.5 mph SW4.0 kmh SW 4.0 mph6.4 kmh 30.23 in1023.7 mb 0.00 in0.0 mm 0.00 in0.0 mm 0.00 in0.0 mm
03:47 AM 41.0°F5.0°C 26.9°F-2.8°C 57% 2.4 mph SSW3.9 kmh SSW 4.0 mph6.4 kmh 30.23 in1023.7 mb 0.00 in0.0 mm 0.00 in0.0 mm 0.00 in0.0 mm
03:52 AM 40.8°F4.9°C 26.8°F-2.9°C 57% 2.4 mph SW3.9 kmh SW 5.0 mph8.0 kmh 30.23 in1023.7 mb 0.00 in0.0 mm 0.00 in0.0 mm 0.00 in0.0 mm
03:57 AM 40.6°F4.8°C 27.0°F-2.8°C 58% 2.7 mph SSW4.3 kmh SSW 5.0 mph8.0 kmh 30.23 in1023.7 mb 0.00 in0.0 mm 0.00 in0.0 mm 0.00 in0.0 mm
04:02 AM 40.5°F4.7°C 26.9°F-2.8°C 58% 2.9 mph SSW4.7 kmh SSW 5.0 mph8.0 kmh 30.23 in1023.7 mb 0.00 in0.0 mm 0.00 in0.0 mm 0.00 in0.0 mm
04:07 AM 40.3°F4.6°C 27.2°F-2.7°C 59% 3.6 mph SW5.8 kmh SW 5.0 mph8.0 kmh 30.23 in1023.7 mb 0.00 in0.0 mm 0.00 in0.0 mm 0.00 in0.0 mm
04:12 AM 40.4°F4.7°C 27.3°F-2.6°C 59% 1.7 mph SW2.7 kmh SW 5.0 mph8.0 kmh 30.23 in1023.7 mb 0.00 in0.0 mm 0.00 in0.0 mm 0.00 in0.0 mm
04:17 AM 40.5°F4.7°C 26.9°F-2.8°C 58% 2.9 mph SW4.7 kmh SW 5.0 mph8.0 kmh 30.23 in1023.7 mb 0.00 in0.0 mm 0.00 in0.0 mm 0.00 in0.0 mm
04:22 AM 40.6°F4.8°C 27.0°F-2.8°C 58% 2.6 mph SW4.2 kmh SW 5.0 mph8.0 kmh 30.23 in1023.7 mb 0.00 in0.0 mm 0.00 in0.0 mm 0.00 in0.0 mm
04:27 AM 40.6°F4.8°C 27.0°F-2.8°C 58% 2.2 mph SW3.5 kmh SW 5.0 mph8.0 kmh 30.23 in1023.7 mb 0.00 in0.0 mm 0.00 in0.0 mm 0.00 in0.0 mm
04:32 AM 40.5°F4.7°C 27.3°F-2.6°C 59% 2.1 mph SW3.4 kmh SW 5.0 mph8.0 kmh 30.23 in1023.7 mb 0.00 in0.0 mm 0.00 in0.0 mm 0.00 in0.0 mm
04:37 AM 40.3°F4.6°C 27.2°F-2.7°C 59% 2.3 mph SW3.7 kmh SW 5.0 mph8.0 kmh 30.23 in1023.7 mb 0.00 in0.0 mm 0.00 in0.0 mm 0.00 in0.0 mm
04:42 AM 40.5°F4.7°C 27.3°F-2.6°C 59% 3.2 mph SW5.1 kmh SW 5.0 mph8.0 kmh 30.23 in1023.7 mb 0.00 in0.0 mm 0.00 in0.0 mm 0.00 in0.0 mm
04:47 AM 40.4°F4.7°C 27.7°F-2.4°C 60% 3.3 mph SW5.3 kmh SW 7.0 mph11.3 kmh 30.23 in1023.7 mb 0.00 in0.0 mm 0.00 in0.0 mm 0.00 in0.0 mm
04:52 AM 40.3°F4.6°C 27.6°F-2.4°C 60% 3.2 mph SSW5.1 kmh SSW 8.0 mph12.9 kmh 30.22 in1023.4 mb 0.00 in0.0 mm 0.00 in0.0 mm 0.00 in0.0 mm
04:57 AM 40.1°F4.5°C 27.4°F-2.6°C 60% 3.6 mph SW5.8 kmh SW 8.0 mph12.9 kmh 30.22 in1023.4 mb 0.00 in0.0 mm 0.00 in0.0 mm 0.00 in0.0 mm
05:02 AM 39.8°F4.3°C 27.5°F-2.5°C 61% 2.9 mph SW4.7 kmh SW 8.0 mph12.9 kmh 30.22 in1023.4 mb 0.00 in0.0 mm 0.00 in0.0 mm 0.00 in0.0 mm
05:07 AM 39.5°F4.2°C 27.2°F-2.7°C 61% 2.7 mph SW4.3 kmh SW 8.0 mph12.9 kmh 30.22 in1023.4 mb 0.00 in0.0 mm 0.00 in0.0 mm 0.00 in0.0 mm
05:12 AM 39.3°F4.1°C 27.4°F-2.6°C 62% 2.3 mph SW3.7 kmh SW 6.0 mph9.7 kmh 30.22 in1023.4 mb 0.00 in0.0 mm 0.00 in0.0 mm 0.00 in0.0 mm
05:17 AM 39.1°F3.9°C 27.2°F-2.7°C 62% 2.9 mph SW4.7 kmh SW 5.0 mph8.0 kmh 30.22 in1023.4 mb 0.00 in0.0 mm 0.00 in0.0 mm 0.00 in0.0 mm
05:22 AM 39.0°F3.9°C 27.5°F-2.5°C 63% 2.0 mph SSW3.2 kmh SSW 5.0 mph8.0 kmh 30.22 in1023.4 mb 0.00 in0.0 mm 0.00 in0.0 mm 0.00 in0.0 mm
05:27 AM 39.2°F4.0°C 27.7°F-2.4°C 63% 3.4 mph SW5.5 kmh SW 6.0 mph9.7 kmh 30.22 in1023.4 mb 0.00 in0.0 mm 0.00 in0.0 mm 0.00 in0.0 mm
05:32 AM 39.5°F4.2°C 28.0°F-2.2°C 63% 4.1 mph SW6.6 kmh SW 8.0 mph12.9 kmh 30.23 in1023.7 mb 0.00 in0.0 mm 0.00 in0.0 mm 0.00 in0.0 mm
05:37 AM 39.4°F4.1°C 27.9°F-2.3°C 63% 3.0 mph SW4.8 kmh SW 8.0 mph12.9 kmh 30.23 in1023.7 mb 0.00 in0.0 mm 0.00 in0.0 mm 0.00 in0.0 mm
05:42 AM 39.4°F4.1°C 27.9°F-2.3°C 63% 3.0 mph SW4.8 kmh SW 8.0 mph12.9 kmh 30.23 in1023.7 mb 0.00 in0.0 mm 0.00 in0.0 mm 0.00 in0.0 mm
05:47 AM 39.6°F4.2°C 28.1°F-2.2°C 63% 2.0 mph SW3.2 kmh SW 8.0 mph12.9 kmh 30.23 in1023.7 mb 0.00 in0.0 mm 0.00 in0.0 mm 0.00 in0.0 mm
05:52 AM 39.7°F4.3°C 28.1°F-2.2°C 63% 2.5 mph SW4.0 kmh SW 6.0 mph9.7 kmh 30.23 in1023.7 mb 0.00 in0.0 mm 0.00 in0.0 mm 0.00 in0.0 mm
05:57 AM 39.6°F4.2°C 28.1°F-2.2°C 63% 2.4 mph SW3.9 kmh SW 6.0 mph9.7 kmh 30.22 in1023.4 mb 0.00 in0.0 mm 0.00 in0.0 mm 0.00 in0.0 mm
06:02 AM 39.7°F4.3°C 28.1°F-2.2°C 63% 2.8 mph SSW4.5 kmh SSW 5.0 mph8.0 kmh 30.22 in1023.4 mb 0.00 in0.0 mm 0.00 in0.0 mm 0.00 in0.0 mm
06:07 AM 39.6°F4.2°C 28.5°F-1.9°C 64% 2.4 mph SSW3.9 kmh SSW 5.0 mph8.0 kmh 30.23 in1023.7 mb 0.00 in0.0 mm 0.00 in0.0 mm 0.00 in0.0 mm
06:12 AM 39.5°F4.2°C 28.7°F-1.8°C 65% 2.3 mph SSW3.7 kmh SSW 4.0 mph6.4 kmh 30.23 in1023.7 mb 0.00 in0.0 mm 0.00 in0.0 mm 0.00 in0.0 mm
06:17 AM 39.7°F4.3°C 29.0°F-1.7°C 65% 1.5 mph S2.4 kmh S 4.0 mph6.4 kmh 30.22 in1023.4 mb 0.00 in0.0 mm 0.00 in0.0 mm 0.00 in0.0 mm
06:22 AM 40.0°F4.4°C 28.9°F-1.7°C 64% 2.3 mph S3.7 kmh S 4.0 mph6.4 kmh 30.22 in1023.4 mb 0.00 in0.0 mm 0.00 in0.0 mm 0.00 in0.0 mm
06:26 AM 40.2°F4.6°C 28.7°F-1.8°C 63% 1.9 mph S3.1 kmh S 5.0 mph8.0 kmh 30.22 in1023.4 mb 0.00 in0.0 mm 0.00 in0.0 mm 0.00 in0.0 mm
06:31 AM 40.0°F4.4°C 28.5°F-1.9°C 63% 2.0 mph SSW3.2 kmh SSW 5.0 mph8.0 kmh 30.22 in1023.4 mb 0.00 in0.0 mm 0.00 in0.0 mm 0.00 in0.0 mm
06:36 AM 39.7°F4.3°C 28.6°F-1.9°C 64% 2.5 mph SW4.0 kmh SW 5.0 mph8.0 kmh 30.23 in1023.7 mb 0.00 in0.0 mm 0.00 in0.0 mm 0.00 in0.0 mm
06:41 AM 39.4°F4.1°C 28.7°F-1.8°C 65% 2.8 mph SSW4.5 kmh SSW 6.0 mph9.7 kmh 30.23 in1023.7 mb 0.00 in0.0 mm 0.00 in0.0 mm 0.00 in0.0 mm
06:46 AM 39.0°F3.9°C 28.3°F-2.1°C 65% 1.9 mph S3.1 kmh S 6.0 mph9.7 kmh 30.23 in1023.7 mb 0.00 in0.0 mm 0.00 in0.0 mm 0.00 in0.0 mm
06:51 AM 38.9°F3.8°C 28.5°F-1.9°C 66% 2.1 mph SSW3.4 kmh SSW 6.0 mph9.7 kmh 30.23 in1023.7 mb 0.00 in0.0 mm 0.00 in0.0 mm 0.00 in0.0 mm
06:56 AM 38.8°F3.8°C 28.9°F-1.7°C 67% 3.3 mph SW5.3 kmh SW 6.0 mph9.7 kmh 30.23 in1023.7 mb 0.00 in0.0 mm 0.00 in0.0 mm 0.00 in0.0 mm
07:01 AM 38.6°F3.7°C 28.7°F-1.8°C 67% 3.5 mph SSW5.6 kmh SSW 6.0 mph9.7 kmh 30.23 in1023.7 mb 0.00 in0.0 mm 0.00 in0.0 mm 0.00 in0.0 mm
07:06 AM 38.5°F3.6°C 28.9°F-1.7°C 68% 2.8 mph SSW4.5 kmh SSW 6.0 mph9.7 kmh 30.23 in1023.7 mb 0.00 in0.0 mm 0.00 in0.0 mm 0.00 in0.0 mm
07:11 AM 38.4°F3.6°C 28.8°F-1.8°C 68% 2.1 mph S3.4 kmh S 6.0 mph9.7 kmh 30.23 in1023.7 mb 0.00 in0.0 mm 0.00 in0.0 mm 0.00 in0.0 mm
07:16 AM 38.5°F3.6°C 28.9°F-1.7°C 68% 2.6 mph SSW4.2 kmh SSW 6.0 mph9.7 kmh 30.23 in1023.7 mb 0.00 in0.0 mm 0.00 in0.0 mm 0.00 in0.0 mm
07:21 AM 38.6°F3.7°C 29.0°F-1.7°C 68% 2.9 mph S4.7 kmh S 7.0 mph11.3 kmh 30.23 in1023.7 mb 0.00 in0.0 mm 0.00 in0.0 mm 0.00 in0.0 mm
07:26 AM 38.6°F3.7°C 29.0°F-1.7°C 68% 2.7 mph S4.3 kmh S 9.0 mph14.5 kmh 30.22 in1023.4 mb 0.00 in0.0 mm 0.00 in0.0 mm 0.00 in0.0 mm
07:31 AM 38.6°F3.7°C 29.3°F-1.5°C 69% 3.3 mph S5.3 kmh S 9.0 mph14.5 kmh 30.22 in1023.4 mb 0.00 in0.0 mm 0.00 in0.0 mm 0.00 in0.0 mm
07:36 AM 38.8°F3.8°C 29.2°F-1.6°C 68% 2.6 mph S4.2 kmh S 9.0 mph14.5 kmh 30.22 in1023.4 mb 0.00 in0.0 mm 0.00 in0.0 mm 0.00 in0.0 mm
07:41 AM 39.0°F3.9°C 29.4°F-1.4°C 68% 1.9 mph SSW3.1 kmh SSW 9.0 mph14.5 kmh 30.23 in1023.7 mb 0.00 in0.0 mm 0.00 in0.0 mm 0.00 in0.0 mm
07:46 AM 38.9°F3.8°C 29.3°F-1.5°C 68% 2.3 mph SW3.7 kmh SW 7.0 mph11.3 kmh 30.23 in1023.7 mb 0.00 in0.0 mm 0.00 in0.0 mm 0.00 in0.0 mm
07:51 AM 38.9°F3.8°C 29.7°F-1.3°C 69% 2.5 mph SW4.0 kmh SW 6.0 mph9.7 kmh 30.23 in1023.7 mb 0.00 in0.0 mm 0.00 in0.0 mm 0.00 in0.0 mm
07:56 AM 38.8°F3.8°C 29.2°F-1.6°C 68% 3.7 mph SSW6.0 kmh SSW 8.0 mph12.9 kmh 30.23 in1023.7 mb 0.00 in0.0 mm 0.00 in0.0 mm 0.00 in0.0 mm
08:01 AM 38.8°F3.8°C 29.6°F-1.3°C 69% 2.6 mph SSW4.2 kmh SSW 8.0 mph12.9 kmh 30.23 in1023.7 mb 0.00 in0.0 mm 0.00 in0.0 mm 0.00 in0.0 mm
08:06 AM 38.7°F3.7°C 29.1°F-1.6°C 68% 3.3 mph SSW5.3 kmh SSW 8.0 mph12.9 kmh 30.23 in1023.7 mb 0.00 in0.0 mm 0.00 in0.0 mm 0.00 in0.0 mm
08:11 AM 38.7°F3.7°C 29.1°F-1.6°C 68% 3.2 mph SSW5.1 kmh SSW 8.0 mph12.9 kmh 30.23 in1023.7 mb 0.00 in0.0 mm 0.00 in0.0 mm 0.00 in0.0 mm
08:16 AM 38.8°F3.8°C 29.6°F-1.3°C 69% 3.5 mph SW5.6 kmh SW 7.0 mph11.3 kmh 30.23 in1023.7 mb 0.00 in0.0 mm 0.00 in0.0 mm 0.00 in0.0 mm
08:21 AM 38.7°F3.7°C 29.4°F-1.4°C 69% 2.6 mph SSW4.2 kmh SSW 7.0 mph11.3 kmh 30.23 in1023.7 mb 0.00 in0.0 mm 0.00 in0.0 mm 0.00 in0.0 mm
08:26 AM 38.8°F3.8°C 29.5°F-1.4°C 69% 3.3 mph S5.3 kmh S 7.0 mph11.3 kmh 30.23 in1023.7 mb 0.00 in0.0 mm 0.00 in0.0 mm 0.00 in0.0 mm
08:31 AM 38.9°F3.8°C 30.0°F-1.1°C 70% 2.8 mph S4.5 kmh S 8.0 mph12.9 kmh 30.23 in1023.7 mb 0.00 in0.0 mm 0.00 in0.0 mm 0.00 in0.0 mm
08:36 AM 39.2°F4.0°C 30.3°F-0.9°C 70% 3.4 mph SSW5.5 kmh SSW 8.0 mph12.9 kmh 30.23 in1023.7 mb 0.00 in0.0 mm 0.00 in0.0 mm 0.00 in0.0 mm
08:41 AM 39.6°F4.2°C 30.6°F-0.8°C 70% 3.9 mph S6.3 kmh S 9.0 mph14.5 kmh 30.22 in1023.4 mb 0.00 in0.0 mm 0.00 in0.0 mm 0.00 in0.0 mm
08:46 AM 39.8°F4.3°C 30.5°F-0.8°C 69% 4.2 mph SSW6.8 kmh SSW 9.0 mph14.5 kmh 30.23 in1023.7 mb 0.00 in0.0 mm 0.00 in0.0 mm 0.00 in0.0 mm
08:51 AM 39.7°F4.3°C 30.4°F-0.9°C 69% 3.0 mph S4.8 kmh S 9.0 mph14.5 kmh 30.23 in1023.7 mb 0.00 in0.0 mm 0.00 in0.0 mm 0.00 in0.0 mm
08:56 AM 39.8°F4.3°C 30.5°F-0.8°C 69% 4.2 mph SSW6.8 kmh SSW 9.0 mph14.5 kmh 30.23 in1023.7 mb 0.00 in0.0 mm 0.00 in0.0 mm 0.00 in0.0 mm
09:01 AM 39.9°F4.4°C 30.6°F-0.8°C 69% 2.7 mph SSW4.3 kmh SSW 9.0 mph14.5 kmh 30.23 in1023.7 mb 0.00 in0.0 mm 0.00 in0.0 mm 0.00 in0.0 mm
09:06 AM 39.9°F4.4°C 30.6°F-0.8°C 69% 3.4 mph SSW5.5 kmh SSW 9.0 mph14.5 kmh 30.23 in1023.7 mb 0.00 in0.0 mm 0.00 in0.0 mm 0.00 in0.0 mm
09:11 AM 40.0°F4.4°C 31.1°F-0.5°C 70% 3.2 mph SSW5.1 kmh SSW 9.0 mph14.5 kmh 30.23 in1023.7 mb 0.00 in0.0 mm 0.00 in0.0 mm 0.00 in0.0 mm
09:16 AM 40.1°F4.5°C 31.2°F-0.4°C 70% 3.8 mph SSW6.1 kmh SSW 9.0 mph14.5 kmh 30.23 in1023.7 mb 0.00 in0.0 mm 0.00 in0.0 mm 0.00 in0.0 mm
09:21 AM 40.3°F4.6°C 31.4°F-0.3°C 70% 3.8 mph SSW6.1 kmh SSW 10.0 mph16.1 kmh 30.23 in1023.7 mb 0.00 in0.0 mm 0.00 in0.0 mm 0.00 in0.0 mm
09:26 AM 40.5°F4.7°C 31.9°F-0.1°C 71% 4.3 mph SSW6.9 kmh SSW 10.0 mph16.1 kmh 30.23 in1023.7 mb 0.00 in0.0 mm 0.00 in0.0 mm 0.00 in0.0 mm
09:31 AM 40.9°F4.9°C 32.3°F0.2°C 71% 3.8 mph SW6.1 kmh SW 10.0 mph16.1 kmh 30.23 in1023.7 mb 0.00 in0.0 mm 0.00 in0.0 mm 0.00 in0.0 mm
09:36 AM 41.1°F5.1°C 32.5°F0.3°C 71% 4.6 mph SSW7.4 kmh SSW 10.0 mph16.1 kmh 30.24 in1024.0 mb 0.00 in0.0 mm 0.00 in0.0 mm 0.00 in0.0 mm
09:41 AM 41.4°F5.2°C 32.8°F0.4°C 71% 3.5 mph S5.6 kmh S 9.0 mph14.5 kmh 30.23 in1023.7 mb 0.00 in0.0 mm 0.00 in0.0 mm 0.00 in0.0 mm
09:46 AM 41.6°F5.3°C 33.3°F0.7°C 72% 4.0 mph SSW6.4 kmh SSW 10.0 mph16.1 kmh 30.24 in1024.0 mb 0.00 in0.0 mm 0.00 in0.0 mm 0.00 in0.0 mm
09:51 AM 41.9°F5.5°C 33.5°F0.8°C 72% 4.9 mph SSW7.9 kmh SSW 10.0 mph16.1 kmh 30.24 in1024.0 mb 0.00 in0.0 mm 0.00 in0.0 mm 0.00 in0.0 mm
09:56 AM 42.1°F5.6°C 34.1°F1.2°C 73% 4.1 mph SSW6.6 kmh SSW 10.0 mph16.1 kmh 30.23 in1023.7 mb 0.00 in0.0 mm 0.00 in0.0 mm 0.00 in0.0 mm
10:01 AM 42.4°F5.8°C 34.4°F1.3°C 73% 5.4 mph SSW8.7 kmh SSW 10.0 mph16.1 kmh 30.24 in1024.0 mb 0.00 in0.0 mm 0.00 in0.0 mm 0.00 in0.0 mm
10:06 AM 42.6°F5.9°C 35.0°F1.7°C 74% 5.2 mph SSW8.4 kmh SSW 10.0 mph16.1 kmh 30.24 in1024.0 mb 0.00 in0.0 mm 0.00 in0.0 mm 0.00 in0.0 mm
10:11 AM 42.8°F6.0°C 34.8°F1.6°C 73% 4.8 mph SSW7.7 kmh SSW 10.0 mph16.1 kmh 30.24 in1024.0 mb 0.00 in0.0 mm 0.00 in0.0 mm 0.00 in0.0 mm
10:16 AM 43.0°F6.1°C 35.3°F1.8°C 74% 6.6 mph SW10.6 kmh SW 11.0 mph17.7 kmh 30.24 in1024.0 mb 0.00 in0.0 mm 0.00 in0.0 mm 0.00 in0.0 mm
10:21 AM 43.3°F6.3°C 35.6°F2.0°C 74% 3.9 mph SW6.3 kmh SW 11.0 mph17.7 kmh 30.24 in1024.0 mb 0.00 in0.0 mm 0.00 in0.0 mm 0.00 in0.0 mm
10:26 AM 43.8°F6.6°C 36.5°F2.5°C 75% 5.4 mph SSW8.7 kmh SSW 11.0 mph17.7 kmh 30.24 in1024.0 mb 0.00 in0.0 mm 0.00 in0.0 mm 0.00 in0.0 mm
10:31 AM 44.4°F6.9°C 37.4°F3.0°C 76% 3.2 mph SSW5.1 kmh SSW 11.0 mph17.7 kmh 30.24 in1024.0 mb 0.00 in0.0 mm 0.00 in0.0 mm 0.00 in0.0 mm
10:36 AM 45.1°F7.3°C 38.0°F3.3°C 76% 5.1 mph SSW8.2 kmh SSW 10.0 mph16.1 kmh 30.23 in1023.7 mb 0.00 in0.0 mm 0.00 in0.0 mm 0.00 in0.0 mm
10:41 AM 45.6°F7.6°C 38.5°F3.6°C 76% 3.9 mph S6.3 kmh S 10.0 mph16.1 kmh 30.23 in1023.7 mb 0.00 in0.0 mm 0.00 in0.0 mm 0.00 in0.0 mm
10:46 AM 46.1°F7.8°C 39.3°F4.1°C 77% 4.6 mph S7.4 kmh S 10.0 mph16.1 kmh 30.23 in1023.7 mb 0.00 in0.0 mm 0.00 in0.0 mm 0.00 in0.0 mm
10:51 AM 46.8°F8.2°C 40.0°F4.4°C 77% 4.9 mph S7.9 kmh S 10.0 mph16.1 kmh 30.23 in1023.7 mb 0.00 in0.0 mm 0.00 in0.0 mm 0.00 in0.0 mm
10:56 AM 47.6°F8.7°C 40.8°F4.9°C 77% 2.7 mph SW4.3 kmh SW 10.0 mph16.1 kmh 30.23 in1023.7 mb 0.00 in0.0 mm 0.00 in0.0 mm 0.00 in0.0 mm
11:01 AM 48.0°F8.9°C 41.2°F5.1°C 77% 5.4 mph SW8.7 kmh SW 13.0 mph20.9 kmh 30.23 in1023.7 mb 0.00 in0.0 mm 0.00 in0.0 mm 0.00 in0.0 mm
11:06 AM 48.6°F9.2°C 42.1°F5.6°C 78% 7.1 mph SW11.4 kmh SW 13.0 mph20.9 kmh 30.24 in1024.0 mb 0.00 in0.0 mm 0.00 in0.0 mm 0.00 in0.0 mm
11:11 AM 49.3°F9.6°C 42.5°F5.8°C 77% 6.8 mph SW10.9 kmh SW 13.0 mph20.9 kmh 30.23 in1023.7 mb 0.00 in0.0 mm 0.00 in0.0 mm 0.00 in0.0 mm
11:16 AM 49.8°F9.9°C 42.9°F6.1°C 77% 3.8 mph SSW6.1 kmh SSW 13.0 mph20.9 kmh 30.22 in1023.4 mb 0.00 in0.0 mm 0.00 in0.0 mm 0.00 in0.0 mm
11:21 AM 50.1°F10.1°C 43.2°F6.2°C 77% 4.9 mph SW7.9 kmh SW 11.0 mph17.7 kmh 30.23 in1023.7 mb 0.00 in0.0 mm 0.00 in0.0 mm 0.00 in0.0 mm
11:26 AM 50.8°F10.4°C 43.9°F6.6°C 77% 5.9 mph SSW9.5 kmh SSW 11.0 mph17.7 kmh 30.23 in1023.7 mb 0.00 in0.0 mm 0.00 in0.0 mm 0.00 in0.0 mm
11:31 AM 51.5°F10.8°C 44.3°F6.8°C 76% 6.4 mph SW10.3 kmh SW 11.0 mph17.7 kmh 30.22 in1023.4 mb 0.00 in0.0 mm 0.00 in0.0 mm 0.00 in0.0 mm
11:36 AM 52.0°F11.1°C 44.7°F7.1°C 76% 6.3 mph SW10.1 kmh SW 13.0 mph20.9 kmh 30.22 in1023.4 mb 0.00 in0.0 mm 0.00 in0.0 mm 0.00 in0.0 mm
11:41 AM 52.5°F11.4°C 45.2°F7.3°C 76% 6.3 mph SW10.1 kmh SW 13.0 mph20.9 kmh 30.22 in1023.4 mb 0.00 in0.0 mm 0.00 in0.0 mm 0.00 in0.0 mm
11:46 AM 53.2°F11.8°C 45.6°F7.6°C 75% 4.8 mph SW7.7 kmh SW 13.0 mph20.9 kmh 30.22 in1023.4 mb 0.00 in0.0 mm 0.00 in0.0 mm 0.00 in0.0 mm
11:51 AM 53.6°F12.0°C 45.6°F7.6°C 74% 5.1 mph SSW8.2 kmh SSW 16.0 mph25.7 kmh 30.21 in1023.0 mb 0.00 in0.0 mm 0.00 in0.0 mm 0.00 in0.0 mm
11:56 AM 53.8°F12.1°C 45.8°F7.7°C 74% 4.7 mph SW7.6 kmh SW 16.0 mph25.7 kmh 30.21 in1023.0 mb 0.00 in0.0 mm 0.00 in0.0 mm 0.00 in0.0 mm
12:01 PM 54.3°F12.4°C 45.9°F7.7°C 73% 4.2 mph SW6.8 kmh SW 16.0 mph25.7 kmh 30.21 in1023.0 mb 0.00 in0.0 mm 0.00 in0.0 mm 0.00 in0.0 mm
12:06 PM 54.8°F12.7°C 46.1°F7.8°C 72% 6.4 mph SSW10.3 kmh SSW 16.0 mph25.7 kmh 30.20 in1022.7 mb 0.00 in0.0 mm 0.00 in0.0 mm 0.00 in0.0 mm
12:11 PM 55.5°F13.1°C 46.7°F8.2°C 72% 3.8 mph SSW6.1 kmh SSW 14.0 mph22.5 kmh 30.20 in1022.7 mb 0.00 in0.0 mm 0.00 in0.0 mm 0.00 in0.0 mm
12:16 PM 56.1°F13.4°C 46.6°F8.1°C 70% 4.6 mph SW7.4 kmh SW 12.0 mph19.3 kmh 30.19 in1022.4 mb 0.00 in0.0 mm 0.00 in0.0 mm 0.00 in0.0 mm
12:21 PM 56.7°F13.7°C 46.8°F8.2°C 69% 3.1 mph SW5.0 kmh SW 12.0 mph19.3 kmh 30.19 in1022.4 mb 0.00 in0.0 mm 0.00 in0.0 mm 0.00 in0.0 mm
12:26 PM 57.2°F14.0°C 46.9°F8.3°C 68% 4.9 mph SSW7.9 kmh SSW 11.0 mph17.7 kmh 30.19 in1022.4 mb 0.00 in0.0 mm 0.00 in0.0 mm 0.00 in0.0 mm
12:31 PM 57.6°F14.2°C 46.9°F8.3°C 67% 5.0 mph SSW8.0 kmh SSW 11.0 mph17.7 kmh 30.19 in1022.4 mb 0.00 in0.0 mm 0.00 in0.0 mm 0.00 in0.0 mm
12:36 PM 57.8°F14.3°C 46.7°F8.2°C 66% 5.7 mph S9.2 kmh S 13.0 mph20.9 kmh 30.19 in1022.4 mb 0.00 in0.0 mm 0.00 in0.0 mm 0.00 in0.0 mm
12:41 PM 58.1°F14.5°C 46.9°F8.3°C 66% 3.8 mph S6.1 kmh S 13.0 mph20.9 kmh 30.18 in1022.0 mb 0.00 in0.0 mm 0.00 in0.0 mm 0.00 in0.0 mm
12:46 PM 58.5°F14.7°C 46.8°F8.2°C 65% 4.7 mph SSW7.6 kmh SSW 13.0 mph20.9 kmh 30.18 in1022.0 mb 0.00 in0.0 mm 0.00 in0.0 mm 0.00 in0.0 mm
12:51 PM 58.7°F14.8°C 46.7°F8.2°C 64% 6.5 mph SW10.5 kmh SW 12.0 mph19.3 kmh 30.18 in1022.0 mb 0.00 in0.0 mm 0.00 in0.0 mm 0.00 in0.0 mm
12:56 PM 58.6°F14.8°C 46.6°F8.1°C 64% 5.1 mph S8.2 kmh S 12.0 mph19.3 kmh 30.17 in1021.7 mb 0.00 in0.0 mm 0.00 in0.0 mm 0.00 in0.0 mm
01:01 PM 58.4°F14.7°C 46.4°F8.0°C 64% 8.0 mph SW12.9 kmh SW 12.0 mph19.3 kmh 30.17 in1021.7 mb 0.00 in0.0 mm 0.00 in0.0 mm 0.00 in0.0 mm
01:06 PM 58.3°F14.6°C 46.7°F8.2°C 65% 3.2 mph SSW5.1 kmh SSW 12.0 mph19.3 kmh 30.17 in1021.7 mb 0.00 in0.0 mm 0.00 in0.0 mm 0.00 in0.0 mm
01:11 PM 58.4°F14.7°C 46.8°F8.2°C 65% 4.9 mph SW7.9 kmh SW 11.0 mph17.7 kmh 30.17 in1021.7 mb 0.00 in0.0 mm 0.00 in0.0 mm 0.00 in0.0 mm
01:16 PM 58.6°F14.8°C 46.9°F8.3°C 65% 4.4 mph SW7.1 kmh SW 11.0 mph17.7 kmh 30.17 in1021.7 mb 0.00 in0.0 mm 0.00 in0.0 mm 0.00 in0.0 mm
01:21 PM 58.8°F14.9°C 46.8°F8.2°C 64% 6.1 mph SSW9.8 kmh SSW 13.0 mph20.9 kmh 30.16 in1021.3 mb 0.00 in0.0 mm 0.00 in0.0 mm 0.00 in0.0 mm
01:26 PM 58.8°F14.9°C 46.8°F8.2°C 64% 7.6 mph SSW12.2 kmh SSW 16.0 mph25.7 kmh 30.16 in1021.3 mb 0.00 in0.0 mm 0.00 in0.0 mm 0.00 in0.0 mm
01:31 PM 58.8°F14.9°C 46.8°F8.2°C 64% 5.7 mph SW9.2 kmh SW 16.0 mph25.7 kmh 30.16 in1021.3 mb 0.00 in0.0 mm 0.00 in0.0 mm 0.00 in0.0 mm
01:36 PM 58.8°F14.9°C 46.8°F8.2°C 64% 8.2 mph SW13.2 kmh SW 18.0 mph29.0 kmh 30.15 in1021.0 mb 0.00 in0.0 mm 0.00 in0.0 mm 0.00 in0.0 mm
01:41 PM 58.9°F14.9°C 46.9°F8.3°C 64% 4.2 mph SW6.8 kmh SW 18.0 mph29.0 kmh 30.15 in1021.0 mb 0.00 in0.0 mm 0.00 in0.0 mm 0.00 in0.0 mm
01:46 PM 58.9°F14.9°C 46.9°F8.3°C 64% 5.8 mph SW9.3 kmh SW 18.0 mph29.0 kmh 30.15 in1021.0 mb 0.00 in0.0 mm 0.00 in0.0 mm 0.00 in0.0 mm
01:51 PM 59.1°F15.1°C 47.1°F8.4°C 64% 6.1 mph SW9.8 kmh SW 18.0 mph29.0 kmh 30.15 in1021.0 mb 0.00 in0.0 mm 0.00 in0.0 mm 0.00 in0.0 mm
01:56 PM 59.3°F15.2°C 47.3°F8.5°C 64% 7.0 mph SW11.3 kmh SW 14.0 mph22.5 kmh 30.14 in1020.7 mb 0.00 in0.0 mm 0.00 in0.0 mm 0.00 in0.0 mm
02:01 PM 59.4°F15.2°C 47.2°F8.4°C 64% 6.3 mph SW10.1 kmh SW 14.0 mph22.5 kmh 30.14 in1020.7 mb 0.00 in0.0 mm 0.00 in0.0 mm 0.00 in0.0 mm
02:06 PM 59.7°F15.4°C 48.1°F8.9°C 65% 3.0 mph SSW4.8 kmh SSW 13.0 mph20.9 kmh 30.14 in1020.7 mb 0.00 in0.0 mm 0.00 in0.0 mm 0.00 in0.0 mm
02:11 PM 59.8°F15.4°C 47.7°F8.7°C 64% 4.5 mph SSW7.2 kmh SSW 13.0 mph20.9 kmh 30.13 in1020.3 mb 0.00 in0.0 mm 0.00 in0.0 mm 0.00 in0.0 mm
02:16 PM 59.8°F15.4°C 47.7°F8.7°C 64% 6.9 mph SW11.1 kmh SW 12.0 mph19.3 kmh 30.13 in1020.3 mb 0.00 in0.0 mm 0.00 in0.0 mm 0.00 in0.0 mm
02:21 PM 60.0°F15.6°C 47.9°F8.8°C 64% 6.3 mph SSW10.1 kmh SSW 12.0 mph19.3 kmh 30.14 in1020.7 mb 0.00 in0.0 mm 0.00 in0.0 mm 0.00 in0.0 mm
02:25 PM 60.4°F15.8°C 48.3°F9.1°C 64% 5.4 mph SW8.7 kmh SW 13.0 mph20.9 kmh 30.13 in1020.3 mb 0.00 in0.0 mm 0.00 in0.0 mm 0.00 in0.0 mm
02:30 PM 60.5°F15.8°C 48.4°F9.1°C 64% 6.8 mph SW10.9 kmh SW 13.0 mph20.9 kmh 30.13 in1020.3 mb 0.00 in0.0 mm 0.00 in0.0 mm 0.00 in0.0 mm
02:35 PM 60.6°F15.9°C 48.5°F9.2°C 64% 8.2 mph SW13.2 kmh SW 17.0 mph27.4 kmh 30.12 in1020.0 mb 0.00 in0.0 mm 0.00 in0.0 mm 0.00 in0.0 mm
02:40 PM 60.5°F15.8°C 48.4°F9.1°C 64% 10.2 mph SW16.4 kmh SW 19.0 mph30.6 kmh 30.12 in1020.0 mb 0.00 in0.0 mm 0.00 in0.0 mm 0.00 in0.0 mm
02:45 PM 60.9°F16.1°C 48.8°F9.3°C 64% 7.9 mph SSW12.7 kmh SSW 19.0 mph30.6 kmh 30.12 in1020.0 mb 0.00 in0.0 mm 0.00 in0.0 mm 0.00 in0.0 mm
02:50 PM 61.4°F16.3°C 49.3°F9.6°C 64% 5.1 mph SW8.2 kmh SW 19.0 mph30.6 kmh 30.13 in1020.3 mb 0.00 in0.0 mm 0.00 in0.0 mm 0.00 in0.0 mm
02:55 PM 61.8°F16.6°C 49.2°F9.6°C 63% 6.1 mph SSW9.8 kmh SSW 16.0 mph25.7 kmh 30.12 in1020.0 mb 0.00 in0.0 mm 0.00 in0.0 mm 0.00 in0.0 mm
03:00 PM 61.8°F16.6°C 49.6°F9.8°C 64% 3.7 mph SW6.0 kmh SW 16.0 mph25.7 kmh 30.12 in1020.0 mb 0.00 in0.0 mm 0.00 in0.0 mm 0.00 in0.0 mm
03:05 PM 61.7°F16.5°C 49.6°F9.8°C 64% 9.6 mph SW15.4 kmh SW 18.0 mph29.0 kmh 30.12 in1020.0 mb 0.00 in0.0 mm 0.00 in0.0 mm 0.00 in0.0 mm
03:10 PM 61.8°F16.6°C 49.6°F9.8°C 64% 9.2 mph SW14.8 kmh SW 18.0 mph29.0 kmh 30.12 in1020.0 mb 0.00 in0.0 mm 0.00 in0.0 mm 0.00 in0.0 mm
03:15 PM 61.7°F16.5°C 49.6°F9.8°C 64% 7.8 mph SW12.6 kmh SW 18.0 mph29.0 kmh 30.12 in1020.0 mb 0.00 in0.0 mm 0.00 in0.0 mm 0.00 in0.0 mm
03:20 PM 61.7°F16.5°C 49.4°F9.7°C 64% 8.3 mph SW13.4 kmh SW 18.0 mph29.0 kmh 30.12 in1020.0 mb 0.00 in0.0 mm 0.00 in0.0 mm 0.00 in0.0 mm
03:25 PM 61.5°F16.4°C 49.2°F9.6°C 64% 6.8 mph SW10.9 kmh SW 17.0 mph27.4 kmh 30.12 in1020.0 mb 0.00 in0.0 mm 0.00 in0.0 mm 0.00 in0.0 mm
03:30 PM 61.5°F16.4°C 49.6°F9.8°C 65% 5.7 mph SW9.2 kmh SW 16.0 mph25.7 kmh 30.12 in1020.0 mb 0.00 in0.0 mm 0.00 in0.0 mm 0.00 in0.0 mm
03:35 PM 61.5°F16.4°C 49.6°F9.8°C 65% 5.7 mph SW9.2 kmh SW 14.0 mph22.5 kmh 30.12 in1020.0 mb 0.00 in0.0 mm 0.00 in0.0 mm 0.00 in0.0 mm
03:40 PM 61.5°F16.4°C 49.6°F9.8°C 65% 4.9 mph SW7.9 kmh SW 16.0 mph25.7 kmh 30.12 in1020.0 mb 0.00 in0.0 mm 0.00 in0.0 mm 0.00 in0.0 mm
03:45 PM 61.4°F16.3°C 49.7°F9.8°C 65% 5.7 mph SW9.2 kmh SW 16.0 mph25.7 kmh 30.12 in1020.0 mb 0.00 in0.0 mm 0.00 in0.0 mm 0.00 in0.0 mm
03:50 PM 61.3°F16.3°C 49.6°F9.8°C 65% 5.3 mph SW8.5 kmh SW 16.0 mph25.7 kmh 30.12 in1020.0 mb 0.00 in0.0 mm 0.00 in0.0 mm 0.00 in0.0 mm
03:55 PM 61.2°F16.2°C 49.9°F9.9°C 66% 6.0 mph SW9.7 kmh SW 16.0 mph25.7 kmh 30.12 in1020.0 mb 0.00 in0.0 mm 0.00 in0.0 mm 0.00 in0.0 mm
04:00 PM 61.2°F16.2°C 49.9°F9.9°C 66% 4.7 mph SSW7.6 kmh SSW 13.0 mph20.9 kmh 30.12 in1020.0 mb 0.00 in0.0 mm 0.00 in0.0 mm 0.00 in0.0 mm
04:05 PM 61.2°F16.2°C 49.9°F9.9°C 66% 6.1 mph SW9.8 kmh SW 13.0 mph20.9 kmh 30.12 in1020.0 mb 0.00 in0.0 mm 0.00 in0.0 mm 0.00 in0.0 mm
04:10 PM 61.1°F16.2°C 49.8°F9.9°C 66% 6.2 mph SW10.0 kmh SW 13.0 mph20.9 kmh 30.12 in1020.0 mb 0.00 in0.0 mm 0.00 in0.0 mm 0.00 in0.0 mm
04:15 PM 61.1°F16.2°C 50.2°F10.1°C 67% 4.5 mph SW7.2 kmh SW 11.0 mph17.7 kmh 30.12 in1020.0 mb 0.00 in0.0 mm 0.00 in0.0 mm 0.00 in0.0 mm
04:20 PM 61.2°F16.2°C 50.7°F10.4°C 68% 7.7 mph SW12.4 kmh SW 13.0 mph20.9 kmh 30.12 in1020.0 mb 0.00 in0.0 mm 0.00 in0.0 mm 0.00 in0.0 mm
04:25 PM 61.1°F16.2°C 51.0°F10.6°C 69% 5.8 mph SSW9.3 kmh SSW 13.0 mph20.9 kmh 30.12 in1020.0 mb 0.00 in0.0 mm 0.00 in0.0 mm 0.00 in0.0 mm
04:30 PM 61.1°F16.2°C 51.0°F10.6°C 69% 5.6 mph SW9.0 kmh SW 15.0 mph24.1 kmh 30.13 in1020.3 mb 0.00 in0.0 mm 0.00 in0.0 mm 0.00 in0.0 mm
04:36 PM 61.1°F16.2°C 51.4°F10.8°C 70% 7.3 mph SW11.7 kmh SW 15.0 mph24.1 kmh 30.13 in1020.3 mb 0.00 in0.0 mm 0.00 in0.0 mm 0.00 in0.0 mm
04:40 PM 61.1°F16.2°C 51.4°F10.8°C 70% 3.9 mph SW6.3 kmh SW 15.0 mph24.1 kmh 30.13 in1020.3 mb 0.00 in0.0 mm 0.00 in0.0 mm 0.00 in0.0 mm
04:45 PM 61.0°F16.1°C 51.3°F10.7°C 70% 5.4 mph SW8.7 kmh SW 15.0 mph24.1 kmh 30.13 in1020.3 mb 0.00 in0.0 mm 0.00 in0.0 mm 0.00 in0.0 mm
04:51 PM 60.9°F16.1°C 51.6°F10.9°C 71% 4.2 mph SW6.8 kmh SW 13.0 mph20.9 kmh 30.13 in1020.3 mb 0.00 in0.0 mm 0.00 in0.0 mm 0.00 in0.0 mm
04:55 PM 60.9°F16.1°C 51.6°F10.9°C 71% 4.7 mph SW7.6 kmh SW 13.0 mph20.9 kmh 30.13 in1020.3 mb 0.00 in0.0 mm 0.00 in0.0 mm 0.00 in0.0 mm
05:01 PM 60.9°F16.1°C 51.6°F10.9°C 71% 5.6 mph SW9.0 kmh SW 13.0 mph20.9 kmh 30.13 in1020.3 mb 0.00 in0.0 mm 0.00 in0.0 mm 0.00 in0.0 mm
05:06 PM 60.8°F16.0°C 51.8°F11.0°C 72% 6.1 mph SW9.8 kmh SW 13.0 mph20.9 kmh 30.13 in1020.3 mb 0.00 in0.0 mm 0.00 in0.0 mm 0.00 in0.0 mm
05:11 PM 60.8°F16.0°C 51.8°F11.0°C 72% 4.5 mph SW7.2 kmh SW 13.0 mph20.9 kmh 30.13 in1020.3 mb 0.00 in0.0 mm 0.00 in0.0 mm 0.00 in0.0 mm
05:16 PM 60.8°F16.0°C 51.7°F10.9°C 72% 3.2 mph SW5.1 kmh SW 13.0 mph20.9 kmh 30.12 in1020.0 mb 0.00 in0.0 mm 0.00 in0.0 mm 0.00 in0.0 mm
05:21 PM 60.7°F15.9°C 52.1°F11.2°C 73% 5.1 mph SW8.2 kmh SW 13.0 mph20.9 kmh 30.13 in1020.3 mb 0.00 in0.0 mm 0.00 in0.0 mm 0.00 in0.0 mm
05:26 PM 60.7°F15.9°C 52.1°F11.2°C 73% 3.3 mph SW5.3 kmh SW 13.0 mph20.9 kmh 30.13 in1020.3 mb 0.00 in0.0 mm 0.00 in0.0 mm 0.00 in0.0 mm
05:31 PM 60.5°F15.8°C 51.9°F11.1°C 73% 4.0 mph SSW6.4 kmh SSW 13.0 mph20.9 kmh 30.13 in1020.3 mb 0.00 in0.0 mm 0.00 in0.0 mm 0.00 in0.0 mm
05:36 PM 60.5°F15.8°C 51.9°F11.1°C 73% 2.9 mph SW4.7 kmh SW 12.0 mph19.3 kmh 30.13 in1020.3 mb 0.00 in0.0 mm 0.00 in0.0 mm 0.00 in0.0 mm
05:41 PM 60.4°F15.8°C 51.8°F11.0°C 73% 3.7 mph SW6.0 kmh SW 9.0 mph14.5 kmh 30.12 in1020.0 mb 0.00 in0.0 mm 0.00 in0.0 mm 0.00 in0.0 mm
05:46 PM 60.3°F15.7°C 51.6°F10.9°C 73% 4.3 mph SW6.9 kmh SW 9.0 mph14.5 kmh 30.12 in1020.0 mb 0.00 in0.0 mm 0.00 in0.0 mm 0.00 in0.0 mm
05:51 PM 60.2°F15.7°C 52.0°F11.1°C 74% 5.0 mph SW8.0 kmh SW 9.0 mph14.5 kmh 30.13 in1020.3 mb 0.00 in0.0 mm 0.00 in0.0 mm 0.00 in0.0 mm
05:56 PM 60.1°F15.6°C 51.9°F11.1°C 74% 2.7 mph SW4.3 kmh SW 9.0 mph14.5 kmh 30.13 in1020.3 mb 0.00 in0.0 mm 0.00 in0.0 mm 0.00 in0.0 mm
06:01 PM 60.1°F15.6°C 51.9°F11.1°C 74% 3.2 mph SW5.1 kmh SW 9.0 mph14.5 kmh 30.13 in1020.3 mb 0.00 in0.0 mm 0.00 in0.0 mm 0.00 in0.0 mm
06:06 PM 60.0°F15.6°C 51.8°F11.0°C 74% 2.5 mph SW4.0 kmh SW 8.0 mph12.9 kmh 30.13 in1020.3 mb 0.00 in0.0 mm 0.00 in0.0 mm 0.00 in0.0 mm
06:11 PM 59.9°F15.5°C 51.7°F10.9°C 74% 2.2 mph SW3.5 kmh SW 8.0 mph12.9 kmh 30.13 in1020.3 mb 0.00 in0.0 mm 0.00 in0.0 mm 0.00 in0.0 mm
06:16 PM 59.8°F15.4°C 51.6°F10.9°C 74% 2.2 mph SW3.5 kmh SW 8.0 mph12.9 kmh 30.13 in1020.3 mb 0.00 in0.0 mm 0.00 in0.0 mm 0.00 in0.0 mm
06:21 PM 59.7°F15.4°C 51.9°F11.1°C 75% 1.3 mph SW2.1 kmh SW 6.0 mph9.7 kmh 30.13 in1020.3 mb 0.00 in0.0 mm 0.00 in0.0 mm 0.00 in0.0 mm
06:26 PM 59.6°F15.3°C 51.8°F11.0°C 75% 2.0 mph SW3.2 kmh SW 6.0 mph9.7 kmh 30.13 in1020.3 mb 0.00 in0.0 mm 0.00 in0.0 mm 0.00 in0.0 mm
06:31 PM 59.5°F15.3°C 51.7°F10.9°C 75% 1.4 mph SW2.3 kmh SW 6.0 mph9.7 kmh 30.13 in1020.3 mb 0.00 in0.0 mm 0.00 in0.0 mm 0.00 in0.0 mm
06:36 PM 59.4°F15.2°C 51.6°F10.9°C 75% 2.6 mph SW4.2 kmh SW 6.0 mph9.7 kmh 30.13 in1020.3 mb 0.00 in0.0 mm 0.00 in0.0 mm 0.00 in0.0 mm
06:41 PM 59.3°F15.2°C 51.8°F11.0°C 76% 1.6 mph SW2.6 kmh SW 6.0 mph9.7 kmh 30.13 in1020.3 mb 0.00 in0.0 mm 0.00 in0.0 mm 0.00 in0.0 mm
06:46 PM 59.3°F15.2°C 51.8°F11.0°C 76% 1.9 mph SW3.1 kmh SW 5.0 mph8.0 kmh 30.13 in1020.3 mb 0.00 in0.0 mm 0.00 in0.0 mm 0.00 in0.0 mm
06:51 PM 59.2°F15.1°C 51.7°F10.9°C 76% 1.5 mph WSW2.4 kmh WSW 5.0 mph8.0 kmh 30.13 in1020.3 mb 0.00 in0.0 mm 0.00 in0.0 mm 0.00 in0.0 mm
06:56 PM 59.1°F15.1°C 51.6°F10.9°C 76% 1.8 mph SW2.9 kmh SW 4.0 mph6.4 kmh 30.13 in1020.3 mb 0.00 in0.0 mm 0.00 in0.0 mm 0.00 in0.0 mm
07:01 PM 58.9°F14.9°C 51.8°F11.0°C 77% 1.8 mph SW2.9 kmh SW 4.0 mph6.4 kmh 30.13 in1020.3 mb 0.00 in0.0 mm 0.00 in0.0 mm 0.00 in0.0 mm
07:06 PM 58.9°F14.9°C 51.7°F10.9°C 77% 1.5 mph SW2.4 kmh SW 4.0 mph6.4 kmh 30.13 in1020.3 mb 0.00 in0.0 mm 0.00 in0.0 mm 0.00 in0.0 mm
07:11 PM 58.8°F14.9°C 51.6°F10.9°C 77% 1.4 mph SW2.3 kmh SW 4.0 mph6.4 kmh 30.13 in1020.3 mb 0.00 in0.0 mm 0.00 in0.0 mm 0.00 in0.0 mm
07:16 PM 58.6°F14.8°C 51.5°F10.8°C 77% 1.5 mph SW2.4 kmh SW 4.0 mph6.4 kmh 30.13 in1020.3 mb 0.00 in0.0 mm 0.00 in0.0 mm 0.00 in0.0 mm
07:21 PM 58.4°F14.7°C 51.6°F10.9°C 78% 1.5 mph SSW2.4 kmh SSW 4.0 mph6.4 kmh 30.12 in1020.0 mb 0.00 in0.0 mm 0.00 in0.0 mm 0.00 in0.0 mm
07:26 PM 58.2°F14.6°C 51.4°F10.8°C 78% 1.4 mph SW2.3 kmh SW 4.0 mph6.4 kmh 30.12 in1020.0 mb 0.00 in0.0 mm 0.00 in0.0 mm 0.00 in0.0 mm
07:31 PM 58.0°F14.4°C 51.6°F10.9°C 79% 2.1 mph SW3.4 kmh SW 4.0 mph6.4 kmh 30.13 in1020.3 mb 0.00 in0.0 mm 0.00 in0.0 mm 0.00 in0.0 mm
07:36 PM 57.8°F14.3°C 51.4°F10.8°C 79% 2.7 mph SW4.3 kmh SW 6.0 mph9.7 kmh 30.13 in1020.3 mb 0.00 in0.0 mm 0.00 in0.0 mm 0.00 in0.0 mm
07:41 PM 57.8°F14.3°C 51.7°F10.9°C 80% 2.7 mph SW4.3 kmh SW 6.0 mph9.7 kmh 30.12 in1020.0 mb 0.00 in0.0 mm 0.00 in0.0 mm 0.00 in0.0 mm
07:46 PM 57.6°F14.2°C 51.5°F10.8°C 80% 3.8 mph SW6.1 kmh SW 7.0 mph11.3 kmh 30.13 in1020.3 mb 0.00 in0.0 mm 0.00 in0.0 mm 0.00 in0.0 mm
07:51 PM 57.5°F14.2°C 51.4°F10.8°C 80% 2.5 mph SW4.0 kmh SW 7.0 mph11.3 kmh 30.13 in1020.3 mb 0.00 in0.0 mm 0.00 in0.0 mm 0.00 in0.0 mm
07:56 PM 57.3°F14.1°C 51.6°F10.9°C 81% 2.3 mph SW3.7 kmh SW 7.0 mph11.3 kmh 30.12 in1020.0 mb 0.00 in0.0 mm 0.00 in0.0 mm 0.00 in0.0 mm
08:01 PM 57.1°F13.9°C 51.4°F10.8°C 81% 2.6 mph SW4.2 kmh SW 7.0 mph11.3 kmh 30.13 in1020.3 mb 0.00 in0.0 mm 0.00 in0.0 mm 0.00 in0.0 mm
08:06 PM 57.0°F13.9°C 51.6°F10.9°C 82% 4.0 mph SW6.4 kmh SW 6.0 mph9.7 kmh 30.13 in1020.3 mb 0.00 in0.0 mm 0.00 in0.0 mm 0.00 in0.0 mm
08:11 PM 56.9°F13.8°C 51.5°F10.8°C 82% 3.5 mph SW5.6 kmh SW 7.0 mph11.3 kmh 30.12 in1020.0 mb 0.00 in0.0 mm 0.00 in0.0 mm 0.00 in0.0 mm
08:16 PM 56.8°F13.8°C 51.4°F10.8°C 82% 2.2 mph SW3.5 kmh SW 7.0 mph11.3 kmh 30.12 in1020.0 mb 0.00 in0.0 mm 0.00 in0.0 mm 0.00 in0.0 mm
08:21 PM 56.6°F13.7°C 51.5°F10.8°C 83% 2.2 mph SW3.5 kmh SW 7.0 mph11.3 kmh 30.12 in1020.0 mb 0.00 in0.0 mm 0.00 in0.0 mm 0.00 in0.0 mm
08:25 PM 56.5°F13.6°C 51.4°F10.8°C 83% 2.9 mph SW4.7 kmh SW 7.0 mph11.3 kmh 30.12 in1020.0 mb 0.00 in0.0 mm 0.00 in0.0 mm 0.00 in0.0 mm
08:30 PM 56.5°F13.6°C 51.4°F10.8°C 83% 3.5 mph SW5.6 kmh SW 8.0 mph12.9 kmh 30.12 in1020.0 mb 0.00 in0.0 mm 0.00 in0.0 mm 0.00 in0.0 mm
08:35 PM 56.4°F13.6°C 51.3°F10.7°C 83% 2.8 mph SW4.5 kmh SW 8.0 mph12.9 kmh 30.12 in1020.0 mb 0.00 in0.0 mm 0.00 in0.0 mm 0.00 in0.0 mm
08:40 PM 56.3°F13.5°C 51.2°F10.7°C 83% 2.6 mph SSW4.2 kmh SSW 8.0 mph12.9 kmh 30.11 in1019.6 mb 0.00 in0.0 mm 0.00 in0.0 mm 0.00 in0.0 mm
08:45 PM 56.0°F13.3°C 51.2°F10.7°C 84% 2.9 mph SSW4.7 kmh SSW 8.0 mph12.9 kmh 30.11 in1019.6 mb 0.00 in0.0 mm 0.00 in0.0 mm 0.00 in0.0 mm
08:50 PM 55.9°F13.3°C 51.5°F10.8°C 85% 2.9 mph SW4.7 kmh SW 7.0 mph11.3 kmh 30.12 in1020.0 mb 0.00 in0.0 mm 0.00 in0.0 mm 0.00 in0.0 mm
08:55 PM 55.9°F13.3°C 51.5°F10.8°C 85% 4.5 mph SW7.2 kmh SW 8.0 mph12.9 kmh 30.12 in1020.0 mb 0.00 in0.0 mm 0.00 in0.0 mm 0.00 in0.0 mm
09:00 PM 55.9°F13.3°C 51.5°F10.8°C 85% 3.7 mph SW6.0 kmh SW 8.0 mph12.9 kmh 30.11 in1019.6 mb 0.00 in0.0 mm 0.00 in0.0 mm 0.00 in0.0 mm
09:05 PM 55.9°F13.3°C 51.5°F10.8°C 85% 3.5 mph SW5.6 kmh SW 8.0 mph12.9 kmh 30.11 in1019.6 mb 0.00 in0.0 mm 0.00 in0.0 mm 0.00 in0.0 mm
09:10 PM 55.8°F13.2°C 51.4°F10.8°C 85% 3.6 mph SW5.8 kmh SW 9.0 mph14.5 kmh 30.11 in1019.6 mb 0.00 in0.0 mm 0.00 in0.0 mm 0.00 in0.0 mm
09:15 PM 55.8°F13.2°C 51.4°F10.8°C 85% 3.7 mph SW6.0 kmh SW 9.0 mph14.5 kmh 30.10 in1019.3 mb 0.00 in0.0 mm 0.00 in0.0 mm 0.00 in0.0 mm
09:20 PM 55.8°F13.2°C 51.4°F10.8°C 85% 3.7 mph SW6.0 kmh SW 11.0 mph17.7 kmh 30.10 in1019.3 mb 0.00 in0.0 mm 0.00 in0.0 mm 0.00 in0.0 mm
09:25 PM 55.9°F13.3°C 51.5°F10.8°C 85% 3.9 mph SW6.3 kmh SW 11.0 mph17.7 kmh 30.10 in1019.3 mb 0.00 in0.0 mm 0.00 in0.0 mm 0.00 in0.0 mm
09:30 PM 56.0°F13.3°C 51.6°F10.9°C 85% 5.1 mph SW8.2 kmh SW 11.0 mph17.7 kmh 30.10 in1019.3 mb 0.00 in0.0 mm 0.00 in0.0 mm 0.00 in0.0 mm
09:35 PM 56.0°F13.3°C 51.6°F10.9°C 85% 4.9 mph SW7.9 kmh SW 11.0 mph17.7 kmh 30.09 in1019.0 mb 0.00 in0.0 mm 0.00 in0.0 mm 0.00 in0.0 mm
09:40 PM 55.9°F13.3°C 51.5°F10.8°C 85% 5.5 mph SSW8.9 kmh SSW 12.0 mph19.3 kmh 30.09 in1019.0 mb 0.00 in0.0 mm 0.00 in0.0 mm 0.00 in0.0 mm
09:45 PM 55.9°F13.3°C 51.5°F10.8°C 85% 4.8 mph SSW7.7 kmh SSW 13.0 mph20.9 kmh 30.08 in1018.6 mb 0.00 in0.0 mm 0.00 in0.0 mm 0.00 in0.0 mm
09:50 PM 56.0°F13.3°C 51.6°F10.9°C 85% 5.8 mph SSW9.3 kmh SSW 15.0 mph24.1 kmh 30.08 in1018.6 mb 0.00 in0.0 mm 0.00 in0.0 mm 0.00 in0.0 mm
09:55 PM 56.1°F13.4°C 51.7°F10.9°C 85% 7.4 mph SSW11.9 kmh SSW 15.0 mph24.1 kmh 30.08 in1018.6 mb 0.00 in0.0 mm 0.00 in0.0 mm 0.00 in0.0 mm
10:00 PM 56.1°F13.4°C 51.7°F10.9°C 85% 6.1 mph SW9.8 kmh SW 15.0 mph24.1 kmh 30.08 in1018.6 mb 0.00 in0.0 mm 0.00 in0.0 mm 0.00 in0.0 mm
10:05 PM 56.1°F13.4°C 51.7°F10.9°C 85% 7.7 mph SSW12.4 kmh SSW 15.0 mph24.1 kmh 30.08 in1018.6 mb 0.00 in0.0 mm 0.00 in0.0 mm 0.00 in0.0 mm
10:10 PM 56.3°F13.5°C 51.8°F11.0°C 85% 8.1 mph SW13.0 kmh SW 16.0 mph25.7 kmh 30.08 in1018.6 mb 0.00 in0.0 mm 0.00 in0.0 mm 0.00 in0.0 mm
10:15 PM 56.4°F13.6°C 51.9°F11.1°C 85% 9.0 mph SW14.5 kmh SW 16.0 mph25.7 kmh 30.08 in1018.6 mb 0.00 in0.0 mm 0.00 in0.0 mm 0.00 in0.0 mm
10:20 PM 56.3°F13.5°C 51.8°F11.0°C 85% 7.6 mph SW12.2 kmh SW 16.0 mph25.7 kmh 30.08 in1018.6 mb 0.00 in0.0 mm 0.00 in0.0 mm 0.00 in0.0 mm
10:25 PM 56.3°F13.5°C 51.8°F11.0°C 85% 7.7 mph SW12.4 kmh SW 16.0 mph25.7 kmh 30.08 in1018.6 mb 0.00 in0.0 mm 0.00 in0.0 mm 0.00 in0.0 mm
10:30 PM 56.2°F13.4°C 51.8°F11.0°C 85% 6.8 mph SW10.9 kmh SW 15.0 mph24.1 kmh 30.08 in1018.6 mb 0.00 in0.0 mm 0.00 in0.0 mm 0.00 in0.0 mm
10:35 PM 56.2°F13.4°C 52.1°F11.2°C 86% 6.9 mph SW11.1 kmh SW 16.0 mph25.7 kmh 30.08 in1018.6 mb 0.00 in0.0 mm 0.00 in0.0 mm 0.00 in0.0 mm
10:40 PM 56.3°F13.5°C 52.2°F11.2°C 86% 7.7 mph SW12.4 kmh SW 16.0 mph25.7 kmh 30.08 in1018.6 mb 0.00 in0.0 mm 0.00 in0.0 mm 0.00 in0.0 mm
10:45 PM 56.3°F13.5°C 52.2°F11.2°C 86% 6.3 mph SW10.1 kmh SW 16.0 mph25.7 kmh 30.08 in1018.6 mb 0.00 in0.0 mm 0.00 in0.0 mm 0.00 in0.0 mm
10:50 PM 56.4°F13.6°C 52.3°F11.3°C 86% 4.2 mph SW6.8 kmh SW 17.0 mph27.4 kmh 30.08 in1018.6 mb 0.00 in0.0 mm 0.00 in0.0 mm 0.00 in0.0 mm
10:55 PM 56.5°F13.6°C 52.4°F11.3°C 86% 8.9 mph SW14.3 kmh SW 17.0 mph27.4 kmh 30.08 in1018.6 mb 0.00 in0.0 mm 0.00 in0.0 mm 0.00 in0.0 mm
11:00 PM 56.6°F13.7°C 52.5°F11.4°C 86% 6.1 mph SW9.8 kmh SW 17.0 mph27.4 kmh 30.08 in1018.6 mb 0.00 in0.0 mm 0.00 in0.0 mm 0.00 in0.0 mm
11:05 PM 56.7°F13.7°C 52.6°F11.4°C 86% 7.0 mph SW11.3 kmh SW 17.0 mph27.4 kmh 30.08 in1018.6 mb 0.00 in0.0 mm 0.00 in0.0 mm 0.00 in0.0 mm
11:10 PM 56.7°F13.7°C 52.6°F11.4°C 86% 6.8 mph SW10.9 kmh SW 16.0 mph25.7 kmh 30.08 in1018.6 mb 0.00 in0.0 mm 0.00 in0.0 mm 0.00 in0.0 mm
11:15 PM 56.6°F13.7°C 52.5°F11.4°C 86% 3.1 mph SW5.0 kmh SW 16.0 mph25.7 kmh 30.08 in1018.6 mb 0.00 in0.0 mm 0.00 in0.0 mm 0.00 in0.0 mm
11:20 PM 56.6°F13.7°C 52.8°F11.6°C 87% 6.9 mph SW11.1 kmh SW 16.0 mph25.7 kmh 30.08 in1018.6 mb 0.00 in0.0 mm 0.00 in0.0 mm 0.00 in0.0 mm
11:25 PM 56.6°F13.7°C 52.8°F11.6°C 87% 4.9 mph SW7.9 kmh SW 16.0 mph25.7 kmh 30.07 in1018.3 mb 0.00 in0.0 mm 0.00 in0.0 mm 0.00 in0.0 mm
11:30 PM 56.6°F13.7°C 52.8°F11.6°C 87% 8.2 mph SW13.2 kmh SW 17.0 mph27.4 kmh 30.07 in1018.3 mb 0.00 in0.0 mm 0.00 in0.0 mm 0.00 in0.0 mm
11:35 PM 56.5°F13.6°C 52.7°F11.5°C 87% 4.2 mph SW6.8 kmh SW 17.0 mph27.4 kmh 30.07 in1018.3 mb 0.00 in0.0 mm 0.00 in0.0 mm 0.00 in0.0 mm
11:40 PM 56.6°F13.7°C 52.8°F11.6°C 87% 5.7 mph SW9.2 kmh SW 17.0 mph27.4 kmh 30.08 in1018.6 mb 0.00 in0.0 mm 0.00 in0.0 mm 0.00 in0.0 mm
11:45 PM 56.7°F13.7°C 52.9°F11.6°C 87% 5.3 mph SW8.5 kmh SW 17.0 mph27.4 kmh 30.08 in1018.6 mb 0.00 in0.0 mm 0.00 in0.0 mm 0.00 in0.0 mm
11:50 PM 56.9°F13.8°C 53.1°F11.7°C 87% 11.1 mph SW17.9 kmh SW 17.0 mph27.4 kmh 30.08 in1018.6 mb 0.00 in0.0 mm 0.00 in0.0 mm 0.00 in0.0 mm
11:55 PM 57.0°F13.9°C 53.2°F11.8°C 87% 8.1 mph SW13.0 kmh SW 20.0 mph32.2 kmh 30.08 in1018.6 mb 0.00 in0.0 mm 0.00 in0.0 mm 0.00 in0.0 mm